Time;durP1;ratioP1;P1;durP2;ratioP2;P2;SDS_P1;SDS_P2;PMS_P1;PMS_P2;Temp;Humidity;BMP_temperature;BMP_pressure;BME280_temperature;BME280_humidity;BME280_pressure;Samples;Min_cycle;Max_cycle;Signal;HPM_P1;HPM_P2
2021/12/25 00:01:00;;;;;;;0.82;0.30;;;18.00;50.30;;;;;;5069526;28;20051;-81
2021/12/25 00:03:26;;;;;;;1.77;0.60;;;18.00;50.30;;;;;;5052107;28;20048;-81
2021/12/25 00:05:54;;;;;;;0.93;0.55;;;18.00;50.30;;;;;;5051504;28;20044;-81
2021/12/25 00:08:23;;;;;;;1.95;0.50;;;18.00;51.00;;;;;;5051176;28;20044;-81
2021/12/25 00:10:49;;;;;;;1.42;0.50;;;18.00;50.30;;;;;;5051376;28;20045;-81
2021/12/25 00:13:15;;;;;;;1.42;0.45;;;18.00;50.20;;;;;;5068737;28;20051;-81
2021/12/25 00:15:42;;;;;;;1.40;0.50;;;18.00;50.30;;;;;;5051754;28;20048;-81
2021/12/25 00:18:08;;;;;;;1.17;0.50;;;18.00;50.20;;;;;;5069576;28;20082;-81
2021/12/25 00:20:33;;;;;;;0.95;0.40;;;18.00;50.20;;;;;;5050905;28;20080;-81
2021/12/25 00:23:00;;;;;;;3.03;0.57;;;18.00;50.20;;;;;;5051433;28;20128;-81
2021/12/25 00:25:26;;;;;;;1.30;0.40;;;18.00;50.20;;;;;;5050651;28;20060;-81
2021/12/25 00:28:00;;;;;;;1.30;0.45;;;18.00;50.20;;;;;;5050537;28;20044;-81
2021/12/25 00:33:01;;;;;;;2.00;0.60;;;17.90;50.10;;;;;;5071088;28;20052;-81
2021/12/25 00:35:27;;;;;;;1.27;0.40;;;17.90;50.10;;;;;;5071016;28;20052;-81
2021/12/25 00:37:52;;;;;;;1.10;0.40;;;17.90;50.00;;;;;;5071258;28;20150;-81
2021/12/25 00:40:18;;;;;;;1.17;0.40;;;17.90;50.00;;;;;;5071228;28;20066;-81
2021/12/25 00:42:44;;;;;;;1.33;0.47;;;17.90;50.00;;;;;;5070664;28;20046;-81
2021/12/25 00:45:10;;;;;;;1.20;0.40;;;17.90;50.70;;;;;;5071504;28;20056;-81
2021/12/25 00:47:35;;;;;;;1.30;0.30;;;17.90;50.00;;;;;;5071105;28;20124;-81
2021/12/25 00:50:01;;;;;;;1.48;0.60;;;17.90;49.90;;;;;;5088193;28;20048;-81
2021/12/25 00:52:26;;;;;;;1.20;0.40;;;17.90;50.00;;;;;;5070991;28;20040;-80
2021/12/25 00:54:52;;;;;;;1.38;0.30;;;17.90;50.00;;;;;;5070902;28;20073;-81
2021/12/25 00:57:17;;;;;;;0.95;0.45;;;17.90;50.00;;;;;;5073899;28;20048;-81
2021/12/25 00:59:43;;;;;;;1.52;0.30;;;17.90;49.90;;;;;;5074716;28;20097;-81
2021/12/25 01:02:08;;;;;;;0.98;0.40;;;17.90;49.90;;;;;;5074538;28;20127;-80
2021/12/25 01:04:34;;;;;;;2.20;0.55;;;17.90;49.90;;;;;;5073078;28;20117;-81
2021/12/25 01:06:59;;;;;;;0.60;0.30;;;17.90;49.90;;;;;;5074784;28;20043;-81
2021/12/25 01:09:25;;;;;;;2.03;0.30;;;17.90;49.90;;;;;;5073882;28;20427;-80
2021/12/25 01:11:52;;;;;;;1.42;0.40;;;17.90;49.90;;;;;;5074391;28;20146;-81
2021/12/25 01:17:41;;;;;;;1.23;0.30;;;17.90;49.90;;;;;;5073697;28;20082;-81
2021/12/25 01:23:18;;;;;;;1.85;0.40;;;17.80;49.90;;;;;;5074292;28;20071;-81
2021/12/25 01:30:58;;;;;;;0.73;0.30;;;17.80;49.80;;;;;;5035931;28;20057;-80
2021/12/25 01:49:22;;;;;;;0.93;0.30;;;17.80;49.70;;;;;;5033811;28;20080;-81
2021/12/25 01:51:48;;;;;;;1.35;0.50;;;17.80;49.70;;;;;;5066224;28;20076;-81
2021/12/25 01:54:13;;;;;;;1.10;0.30;;;17.80;49.70;;;;;;5066979;28;20044;-81
2021/12/25 01:56:39;;;;;;;1.88;0.40;;;17.80;49.80;;;;;;5066859;28;20045;-81
2021/12/25 01:59:05;;;;;;;1.05;0.30;;;17.80;49.80;;;;;;5033336;28;20059;-81
2021/12/25 02:01:30;;;;;;;1.10;0.30;;;17.80;49.70;;;;;;5066728;28;20481;-81
2021/12/25 02:03:56;;;;;;;1.25;0.40;;;17.80;49.70;;;;;;5033338;28;20463;-81
2021/12/25 02:06:21;;;;;;;1.45;0.30;;;17.80;49.70;;;;;;5054376;28;20048;-80
2021/12/25 02:08:47;;;;;;;0.63;0.25;;;17.80;49.70;;;;;;5015492;28;20554;-81
2021/12/25 02:11:12;;;;;;;1.33;0.40;;;18.40;50.00;;;;;;5066495;28;20490;-81
2021/12/25 02:13:41;;;;;;;1.27;0.40;;;17.80;49.70;;;;;;5066122;28;20049;-81
2021/12/25 02:16:13;;;;;;;1.13;0.30;;;17.70;49.70;;;;;;5066722;28;20099;-81
2021/12/25 02:21:19;;;;;;;1.77;0.40;;;17.70;49.60;;;;;;5032614;28;20049;-80
2021/12/25 02:23:45;;;;;;;0.90;0.30;;;17.80;49.60;;;;;;5023068;28;20049;-80
2021/12/25 02:26:11;;;;;;;0.80;0.30;;;17.80;49.60;;;;;;5033046;28;20503;-80
2021/12/25 02:28:36;;;;;;;1.20;0.22;;;17.80;49.60;;;;;;5029794;28;20049;-80
2021/12/25 02:31:06;;;;;;;1.35;0.50;;;17.70;49.50;;;;;;5046099;28;20144;-81
2021/12/25 02:33:31;;;;;;;0.70;0.30;;;17.80;49.60;;;;;;5046220;28;20057;-80
2021/12/25 02:35:57;;;;;;;0.95;0.30;;;17.80;49.60;;;;;;5012700;28;20048;-81
2021/12/25 02:38:23;;;;;;;1.10;0.30;;;17.80;49.60;;;;;;5046273;28;20096;-81
2021/12/25 02:40:48;;;;;;;1.08;0.40;;;17.80;49.60;;;;;;5045767;28;20160;-81
2021/12/25 02:43:15;;;;;;;1.08;0.38;;;17.80;49.50;;;;;;5046205;28;20484;-81
2021/12/25 02:45:40;;;;;;;1.25;0.40;;;17.80;49.50;;;;;;5013119;28;20492;-81
2021/12/25 02:48:09;;;;;;;1.02;0.30;;;17.80;49.50;;;;;;5012651;28;20120;-80
2021/12/25 02:50:35;;;;;;;1.60;0.30;;;17.80;49.50;;;;;;5013195;28;20053;-81
2021/12/25 02:53:01;;;;;;;0.35;0.20;;;17.80;49.50;;;;;;5012986;28;20401;-80
2021/12/25 02:55:26;;;;;;;1.90;0.30;;;17.80;49.50;;;;;;5045521;28;20049;-81
2021/12/25 02:57:52;;;;;;;0.60;0.20;;;17.70;49.50;;;;;;5030603;28;20053;-81
2021/12/25 03:00:24;;;;;;;1.20;0.35;;;17.70;49.40;;;;;;5012634;28;20199;-80
2021/12/25 03:02:50;;;;;;;;;;;17.70;49.40;;;;;;5012770;28;20519;-80
2021/12/25 03:05:15;;;;;;;0.73;0.30;;;17.70;49.40;;;;;;5029102;28;19925;-81
2021/12/25 03:07:41;;;;;;;1.42;0.45;;;17.70;49.40;;;;;;5012572;28;20045;-81
2021/12/25 03:10:07;;;;;;;0.73;0.30;;;17.70;49.40;;;;;;5012000;28;20503;-81
2021/12/25 03:12:45;;;;;;;0.75;0.30;;;17.70;49.40;;;;;;5012821;28;20051;-81
2021/12/25 03:15:17;;;;;;;0.93;0.20;;;17.70;49.40;;;;;;5012312;28;20119;-81
2021/12/25 03:17:42;;;;;;;0.83;0.30;;;17.70;49.40;;;;;;5027650;28;20052;-81
2021/12/25 03:20:09;;;;;;;1.30;0.22;;;17.70;49.40;;;;;;5044750;28;20041;-81
2021/12/25 03:22:35;;;;;;;1.88;0.20;;;17.70;49.40;;;;;;5012038;28;20142;-81
2021/12/25 03:25:00;;;;;;;1.35;0.25;;;17.70;49.30;;;;;;5012115;28;20081;-81
2021/12/25 03:27:26;;;;;;;1.13;0.45;;;17.70;49.30;;;;;;5045219;28;20049;-81
2021/12/25 03:29:52;;;;;;;0.65;0.20;;;17.70;49.30;;;;;;5045093;28;20128;-81
2021/12/25 03:32:17;;;;;;;0.30;0.10;;;17.70;49.30;;;;;;5044725;28;20108;-81
2021/12/25 03:34:43;;;;;;;1.05;0.30;;;17.70;49.30;;;;;;5012167;28;20045;-81
2021/12/25 03:37:09;;;;;;;0.70;0.17;;;17.70;49.30;;;;;;5044739;28;20049;-81
2021/12/25 03:39:34;;;;;;;0.93;0.30;;;17.70;49.30;;;;;;5012422;28;20558;-81
2021/12/25 03:42:00;;;;;;;0.93;0.30;;;18.00;49.40;;;;;;5012157;28;20187;-81
2021/12/25 03:44:26;;;;;;;0.63;0.30;;;17.70;49.30;;;;;;5011288;28;20045;-80
2021/12/25 03:46:53;;;;;;;1.02;0.30;;;18.40;49.60;;;;;;5012210;28;20046;-80
2021/12/25 03:53:06;;;;;;;0.60;0.20;;;17.70;49.20;;;;;;5029805;28;20125;-80
2021/12/25 03:57:53;;;;;;;0.85;0.20;;;17.70;49.20;;;;;;5028412;28;20049;-80
2021/12/25 04:00:26;;;;;;;0.43;0.20;;;17.70;49.20;;;;;;5029502;28;20038;-80
2021/12/25 04:02:59;;;;;;;1.83;0.20;;;17.70;49.10;;;;;;5011969;28;20140;-80
2021/12/25 04:05:29;;;;;;;1.10;0.30;;;17.70;49.10;;;;;;5011197;28;20049;-81
2021/12/25 04:08:04;;;;;;;0.52;0.20;;;17.70;49.20;;;;;;5011702;28;20120;-81
2021/12/25 04:10:34;;;;;;;0.65;0.20;;;17.70;49.10;;;;;;5011349;28;20491;-80
2021/12/25 04:12:59;;;;;;;0.73;0.25;;;17.60;49.00;;;;;;5008090;28;20771;-80
2021/12/25 04:15:25;;;;;;;0.47;0.20;;;17.60;49.00;;;;;;5044559;28;20042;-80
2021/12/25 04:17:50;;;;;;;0.88;0.20;;;17.60;49.00;;;;;;5012028;28;20099;-81
2021/12/25 04:20:17;;;;;;;0.30;0.10;;;17.60;49.00;;;;;;5044239;28;20233;-81
2021/12/25 04:22:48;;;;;;;0.50;0.20;;;17.60;49.00;;;;;;5012010;28;20045;-81
2021/12/25 04:25:19;;;;;;;0.47;0.13;;;17.60;49.00;;;;;;5011675;28;20447;-80
2021/12/25 04:27:45;;;;;;;0.75;0.30;;;17.60;49.00;;;;;;5029029;28;20081;-81
2021/12/25 04:30:24;;;;;;;0.80;0.20;;;17.60;48.90;;;;;;5011524;28;20067;-81
2021/12/25 04:33:26;;;;;;;1.13;0.20;;;17.60;48.90;;;;;;5015612;28;20060;-80
2021/12/25 05:03:01;;;;;;;0.55;0.20;;;17.60;48.80;;;;;;5030800;28;20057;-80
2021/12/25 05:05:28;;;;;;;0.70;0.20;;;17.60;48.80;;;;;;5015137;28;20616;-80
2021/12/25 05:07:54;;;;;;;1.05;0.40;;;17.60;48.80;;;;;;5014393;28;20033;-80
2021/12/25 05:10:19;;;;;;;0.43;0.20;;;17.60;48.80;;;;;;5047422;28;20053;-80
2021/12/25 05:12:45;;;;;;;1.58;0.20;;;17.60;48.90;;;;;;5048173;28;20050;-80
2021/12/25 05:15:10;;;;;;;0.52;0.20;;;17.60;48.80;;;;;;5047716;28;20057;-80
2021/12/25 05:17:36;;;;;;;0.68;0.30;;;17.60;48.80;;;;;;5047475;28;20045;-80
2021/12/25 05:20:03;;;;;;;1.10;0.20;;;17.60;48.80;;;;;;5014535;28;20496;-80
2021/12/25 05:22:29;;;;;;;0.40;0.30;;;17.60;48.80;;;;;;5014046;28;20049;-80
2021/12/25 05:24:54;;;;;;;0.30;0.10;;;17.60;48.80;;;;;;5014870;28;20469;-80
2021/12/25 05:27:20;;;;;;;0.68;0.20;;;17.60;48.90;;;;;;5047485;28;20049;-80
2021/12/25 05:29:48;;;;;;;0.65;0.30;;;17.60;48.90;;;;;;5047065;28;20054;-80
2021/12/25 05:32:15;;;;;;;0.50;0.20;;;17.60;48.80;;;;;;5014111;28;20127;-80
2021/12/25 05:34:41;;;;;;;0.52;0.20;;;17.60;48.90;;;;;;5014272;28;20046;-80
2021/12/25 05:37:07;;;;;;;1.02;0.20;;;17.60;48.80;;;;;;5046736;28;20064;-80
2021/12/25 05:39:32;;;;;;;0.60;0.15;;;17.60;48.80;;;;;;5047922;28;20045;-80
2021/12/25 05:41:58;;;;;;;0.25;0.20;;;17.60;48.80;;;;;;5048844;28;20409;-81
2021/12/25 05:44:25;;;;;;;0.47;0.10;;;17.70;48.90;;;;;;5033090;28;20060;-81
2021/12/25 05:46:50;;;;;;;0.52;0.13;;;17.70;48.90;;;;;;5032666;28;20057;-81
2021/12/25 05:49:16;;;;;;;0.40;0.20;;;17.70;48.80;;;;;;5033557;28;20056;-81
2021/12/25 05:51:41;;;;;;;0.32;0.20;;;17.70;48.80;;;;;;5033163;28;20045;-81
2021/12/25 05:54:07;;;;;;;0.20;0.10;;;17.70;48.80;;;;;;5007571;28;20147;-81
2021/12/25 05:56:32;;;;;;;0.60;0.20;;;17.70;48.80;;;;;;5033613;28;20522;-81
2021/12/25 05:58:58;;;;;;;0.50;0.20;;;17.70;48.80;;;;;;5033159;28;20037;-81
2021/12/25 06:01:24;;;;;;;0.25;0.13;;;17.70;48.80;;;;;;5033783;28;20086;-81
2021/12/25 06:03:49;;;;;;;0.68;0.38;;;17.70;49.50;;;;;;5033360;28;20118;-81
2021/12/25 06:06:15;;;;;;;0.68;0.20;;;17.70;48.70;;;;;;5033344;28;20048;-81
2021/12/25 06:08:40;;;;;;;0.20;0.10;;;17.80;48.80;;;;;;5031502;28;20563;-81
2021/12/25 06:11:06;;;;;;;0.25;0.10;;;17.80;48.80;;;;;;5033286;28;20053;-81
2021/12/25 06:13:32;;;;;;;0.98;0.20;;;17.80;48.70;;;;;;5016634;28;20059;-81
2021/12/25 06:15:57;;;;;;;0.52;0.20;;;17.80;48.70;;;;;;5016861;28;20045;-81
2021/12/25 06:18:23;;;;;;;0.65;0.20;;;17.80;48.70;;;;;;5033196;28;20480;-80
2021/12/25 06:20:48;;;;;;;0.57;0.20;;;17.80;48.70;;;;;;5022631;28;20135;-81
2021/12/25 06:23:14;;;;;;;1.00;0.30;;;17.80;48.70;;;;;;5050047;28;20124;-81
2021/12/25 06:25:40;;;;;;;0.40;0.10;;;17.80;48.60;;;;;;5049894;28;20051;-81
2021/12/25 06:28:05;;;;;;;0.40;0.20;;;17.80;48.60;;;;;;5049812;28;20484;-81
2021/12/25 06:30:31;;;;;;;0.20;0.10;;;17.80;48.60;;;;;;5048924;28;20059;-81
2021/12/25 06:32:56;;;;;;;0.70;0.20;;;17.80;48.60;;;;;;5060000;28;20148;-81
2021/12/25 06:35:22;;;;;;;0.70;0.20;;;17.80;48.60;;;;;;5056419;28;20036;-81
2021/12/25 06:37:48;;;;;;;0.20;0.10;;;17.80;48.60;;;;;;5068696;28;20559;-81
2021/12/25 06:40:17;;;;;;;0.55;0.20;;;17.80;48.50;;;;;;5054735;28;20045;-81
2021/12/25 06:42:43;;;;;;;0.20;0.10;;;17.80;48.50;;;;;;5057129;28;20052;-81
2021/12/25 06:45:08;;;;;;;0.63;0.10;;;17.80;48.60;;;;;;5035675;28;20049;-81
2021/12/25 06:47:34;;;;;;;0.57;0.20;;;17.80;48.60;;;;;;5035118;28;20094;-81
2021/12/25 06:49:59;;;;;;;0.10;0.10;;;17.80;48.60;;;;;;5072360;28;20139;-81
2021/12/25 06:52:25;;;;;;;0.43;0.20;;;17.80;48.50;;;;;;5052868;28;20523;-81
2021/12/25 06:54:50;;;;;;;0.70;0.20;;;17.80;48.50;;;;;;5051399;28;20048;-81
2021/12/25 06:57:17;;;;;;;0.22;0.08;;;19.20;49.30;;;;;;5052216;28;20154;-81
2021/12/25 06:59:43;;;;;;;0.55;0.20;;;17.80;48.50;;;;;;5068680;28;20057;-81
2021/12/25 07:02:09;;;;;;;0.25;0.15;;;17.80;48.40;;;;;;5052077;28;20447;-81
2021/12/25 07:04:34;;;;;;;0.20;0.10;;;17.80;48.40;;;;;;5052286;28;20048;-81
2021/12/25 07:07:00;;;;;;;0.52;0.10;;;17.80;48.40;;;;;;5049662;28;20147;-81
2021/12/25 07:09:25;;;;;;;0.45;0.20;;;17.90;48.40;;;;;;5050793;28;20048;-81
2021/12/25 07:11:51;;;;;;;1.38;0.17;;;17.80;48.40;;;;;;5052138;28;20049;-81
2021/12/25 07:14:16;;;;;;;0.40;0.15;;;17.90;48.40;;;;;;4709637;28;10002436;-81
2021/12/25 07:16:42;;;;;;;0.50;0.20;;;17.90;48.40;;;;;;5068219;28;20067;-81
2021/12/25 07:19:10;;;;;;;0.38;0.00;;;17.90;48.40;;;;;;5051914;28;20084;-81
2021/12/25 07:21:35;;;;;;;0.65;0.20;;;17.80;48.30;;;;;;5051851;28;20048;-81
2021/12/25 07:24:03;;;;;;;0.10;0.10;;;17.90;48.30;;;;;;5074114;28;20120;-81
2021/12/25 07:26:29;;;;;;;0.63;0.20;;;17.90;48.40;;;;;;5072225;28;20063;-81
2021/12/25 07:28:54;;;;;;;0.22;0.10;;;17.90;48.30;;;;;;5071743;28;20055;-81
2021/12/25 07:31:21;;;;;;;0.68;0.13;;;17.90;48.30;;;;;;5070964;28;20048;-82
2021/12/25 07:33:46;;;;;;;0.98;0.10;;;17.90;48.30;;;;;;5070331;28;20147;-80
2021/12/25 07:36:12;;;;;;;0.70;0.20;;;17.90;48.30;;;;;;5088460;28;20126;-80
2021/12/25 07:38:38;;;;;;;0.30;0.10;;;17.80;48.20;;;;;;5071272;28;20056;-81
2021/12/25 07:41:04;;;;;;;0.20;0.13;;;17.90;48.20;;;;;;5088854;28;20649;-81
2021/12/25 07:43:29;;;;;;;1.40;0.10;;;17.90;48.20;;;;;;5072478;28;20448;-81
2021/12/25 07:45:55;;;;;;;0.85;0.10;;;17.90;48.20;;;;;;5071849;28;20406;-80
2021/12/25 07:48:23;;;;;;;0.40;0.10;;;17.80;48.10;;;;;;5071506;28;20108;-81
2021/12/25 07:50:49;;;;;;;0.20;0.08;;;17.90;48.20;;;;;;5071027;28;20044;-82
2021/12/25 07:53:16;;;;;;;0.90;0.20;;;18.10;48.20;;;;;;5071987;28;20130;-81
2021/12/25 07:55:47;;;;;;;1.85;0.10;;;17.90;48.10;;;;;;5071406;28;20048;-82
2021/12/25 07:58:13;;;;;;;0.70;0.20;;;17.80;48.00;;;;;;5074493;28;20043;-82
2021/12/25 08:00:39;;;;;;;0.30;0.10;;;17.90;48.00;;;;;;5075314;28;20310;-82
2021/12/25 08:03:04;;;;;;;0.70;0.10;;;17.80;47.90;;;;;;5076697;28;20127;-82
2021/12/25 08:05:30;;;;;;;2.08;0.20;;;17.80;47.90;;;;;;5070005;28;20040;-82
2021/12/25 08:07:55;;;;;;;1.50;0.10;;;17.80;47.90;;;;;;5070630;28;20724;-82
2021/12/25 08:10:21;;;;;;;0.17;0.10;;;17.90;48.00;;;;;;5070564;28;20048;-82
2021/12/25 08:12:53;;;;;;;0.65;0.13;;;17.80;47.80;;;;;;5071149;28;20496;-82
2021/12/25 08:15:26;;;;;;;1.30;0.22;;;17.80;47.80;;;;;;5072033;28;20090;-82
2021/12/25 08:17:52;;;;;;;0.20;0.00;;;17.80;47.80;;;;;;5070309;28;20507;-82
2021/12/25 08:20:18;;;;;;;0.50;0.10;;;17.80;47.80;;;;;;5070228;28;20040;-82
2021/12/25 08:22:44;;;;;;;0.30;0.10;;;18.70;48.20;;;;;;5070161;28;20059;-82
2021/12/25 08:25:10;;;;;;;0.93;0.20;;;17.80;47.80;;;;;;5073696;28;20152;-82
2021/12/25 08:27:36;;;;;;;0.52;0.13;;;17.80;47.80;;;;;;5087817;28;20040;-81
2021/12/25 08:30:04;;;;;;;0.88;0.20;;;17.80;47.80;;;;;;5073370;28;20032;-82
2021/12/25 08:32:29;;;;;;;0.20;0.10;;;17.80;47.70;;;;;;5071357;28;20048;-82
2021/12/25 08:34:55;;;;;;;0.98;0.10;;;17.80;47.70;;;;;;5070180;28;20032;-82
2021/12/25 08:37:23;;;;;;;0.80;0.20;;;17.80;47.70;;;;;;5055352;28;20036;-82
2021/12/25 08:39:50;;;;;;;0.03;0.03;;;17.80;47.70;;;;;;5070226;28;20077;-82
2021/12/25 08:42:16;;;;;;;0.50;0.10;;;17.80;47.60;;;;;;5087969;28;20062;-80
2021/12/25 08:45:05;;;;;;;0.82;0.10;;;17.80;47.60;;;;;;5070523;28;20483;-82
2021/12/25 08:47:36;;;;;;;1.08;0.15;;;16.40;46.80;;;;;;5072603;28;20036;-78
2021/12/25 08:50:07;;;;;;;1.80;0.13;;;17.70;47.50;;;;;;5071338;28;20048;-83
2021/12/25 08:52:33;;;;;;;0.50;0.20;;;17.80;47.50;;;;;;5070447;28;20068;-79
2021/12/25 08:54:58;;;;;;;0.30;0.10;;;17.70;47.40;;;;;;5053845;28;20064;-82
2021/12/25 08:57:24;;;;;;;0.70;0.10;;;17.70;47.50;;;;;;5071266;28;20142;-82
2021/12/25 08:59:54;;;;;;;0.95;0.10;;;18.40;47.70;;;;;;5057126;28;20060;-81
2021/12/25 09:02:20;;;;;;;12.30;0.35;;;17.70;47.30;;;;;;5070243;28;20048;-82
2021/12/25 09:04:47;;;;;;;1.65;0.10;;;17.70;47.30;;;;;;5071122;28;20062;-82
2021/12/25 09:07:13;;;;;;;1.17;0.10;;;18.40;47.60;;;;;;5088016;28;20052;-82
2021/12/25 09:09:39;;;;;;;1.95;0.20;;;17.70;47.20;;;;;;5070290;28;20109;-82
2021/12/25 09:12:05;;;;;;;1.15;0.20;;;17.70;47.20;;;;;;5070152;28;20540;-82
2021/12/25 09:14:31;;;;;;;1.15;0.20;;;17.70;47.20;;;;;;5070274;28;20135;-82
2021/12/25 09:16:56;;;;;;;0.10;0.03;;;17.60;47.20;;;;;;5070429;28;20143;-82
2021/12/25 09:19:22;;;;;;;1.08;0.40;;;17.60;47.20;;;;;;5073117;28;20064;-82
2021/12/25 09:21:47;;;;;;;0.95;0.10;;;17.60;47.10;;;;;;5074176;28;20055;-82
2021/12/25 09:24:13;;;;;;;1.98;0.20;;;17.60;47.10;;;;;;5074030;28;20496;-82
2021/12/25 09:26:39;;;;;;;0.38;0.10;;;17.60;47.20;;;;;;5072131;28;20503;-82
2021/12/25 09:29:04;;;;;;;0.30;0.20;;;17.60;47.20;;;;;;5079041;28;20048;-82
2021/12/25 09:31:30;;;;;;;0.40;0.10;;;17.60;47.20;;;;;;5076867;28;20048;-82
2021/12/25 09:33:56;;;;;;;0.73;0.10;;;17.60;47.20;;;;;;5074911;28;20044;-82
2021/12/25 09:36:21;;;;;;;1.00;0.10;;;17.60;47.30;;;;;;5080178;28;20055;-82
2021/12/25 09:38:47;;;;;;;0.85;0.10;;;17.60;47.20;;;;;;5077056;28;20075;-82
2021/12/25 09:41:13;;;;;;;0.90;0.20;;;17.60;47.20;;;;;;5074558;28;20522;-82
2021/12/25 09:43:39;;;;;;;0.50;0.10;;;17.50;47.20;;;;;;5078387;28;20072;-82
2021/12/25 09:46:06;;;;;;;0.73;0.08;;;17.60;47.20;;;;;;5081285;28;20044;-82
2021/12/25 09:48:33;;;;;;;0.35;0.10;;;17.60;47.20;;;;;;5076942;28;20044;-82
2021/12/25 09:50:59;;;;;;;0.70;0.10;;;17.60;47.20;;;;;;5073029;28;20044;-82
2021/12/25 09:53:26;;;;;;;1.27;0.10;;;17.60;47.20;;;;;;5073728;28;20043;-82
2021/12/25 09:55:52;;;;;;;0.20;0.10;;;17.60;47.20;;;;;;5073585;28;20087;-82
2021/12/25 09:58:17;;;;;;;1.77;0.20;;;17.60;47.20;;;;;;5073172;28;20128;-82
2021/12/25 10:00:44;;;;;;;0.13;0.00;;;17.50;47.10;;;;;;5073909;28;20902;-82
2021/12/25 10:03:10;;;;;;;0.35;0.10;;;17.60;47.10;;;;;;5073453;28;20434;-82
2021/12/25 10:05:43;;;;;;;0.30;0.05;;;17.50;47.10;;;;;;5076221;28;20483;-82
2021/12/25 10:08:11;;;;;;;0.00;0.00;;;17.60;47.10;;;;;;5074594;28;20538;-82
2021/12/25 10:10:48;;;;;;;0.32;0.10;;;17.50;47.10;;;;;;5078229;28;20384;-82
2021/12/25 10:13:41;;;;;;;0.50;0.10;;;17.60;47.10;;;;;;5075927;28;20052;-82
2021/12/25 10:16:27;;;;;;;0.40;0.10;;;17.60;47.10;;;;;;5070131;28;20151;-83
2021/12/25 10:18:54;;;;;;;0.55;0.20;;;17.60;47.10;;;;;;5090740;28;20373;-83
2021/12/25 10:21:21;;;;;;;0.40;0.10;;;18.40;47.50;;;;;;5073083;28;20048;-82
2021/12/25 10:24:15;;;;;;;1.08;0.15;;;17.60;47.10;;;;;;5072992;28;20202;-82
2021/12/25 10:26:43;;;;;;;1.95;0.25;;;17.60;47.10;;;;;;5075619;28;20378;-82
2021/12/25 10:29:15;;;;;;;0.17;0.00;;;17.60;47.00;;;;;;5072551;28;20127;-83
2021/12/25 10:31:40;;;;;;;0.80;0.10;;;17.60;47.00;;;;;;5069336;28;20464;-81
2021/12/25 10:34:26;;;;;;;0.57;0.03;;;17.60;47.00;;;;;;5070395;28;20080;-82
2021/12/25 10:36:52;;;;;;;2.97;0.17;;;17.60;47.80;;;;;;5069073;28;20051;-83
2021/12/25 10:39:22;;;;;;;3.00;0.10;;;17.60;47.10;;;;;;5069212;28;20052;-82
2021/12/25 10:41:55;;;;;;;0.65;0.10;;;17.60;47.00;;;;;;5051386;28;20049;-82
2021/12/25 10:44:22;;;;;;;;;;;17.70;47.10;;;;;;5069106;28;20048;-84
2021/12/25 10:46:54;;;;;;;0.77;0.08;;;17.70;47.00;;;;;;5058619;28;20453;-83
2021/12/25 10:49:21;;;;;;;1.38;0.13;;;17.70;47.00;;;;;;5044067;28;20037;-84
2021/12/25 10:51:46;;;;;;;0.03;0.00;;;17.70;47.00;;;;;;5028854;28;20085;-82
2021/12/25 10:54:14;;;;;;;0.68;0.10;;;17.70;46.90;;;;;;5043411;28;20197;-82
2021/12/25 10:56:40;;;;;;;0.73;0.10;;;17.70;46.90;;;;;;5078112;28;20053;-82
2021/12/25 10:59:11;;;;;;;0.10;0.10;;;17.70;46.90;;;;;;5068975;28;20036;-82
2021/12/25 11:01:42;;;;;;;0.15;0.03;;;17.70;46.90;;;;;;5068571;28;20063;-82
2021/12/25 11:04:35;;;;;;;0.40;0.10;;;17.70;46.80;;;;;;5065710;28;20755;-82
2021/12/25 11:07:13;;;;;;;0.20;0.10;;;17.70;46.80;;;;;;5068711;28;20041;-82
2021/12/25 11:09:39;;;;;;;0.25;0.15;;;17.70;46.80;;;;;;5067689;28;20055;-82
2021/12/25 11:12:34;;;;;;;0.65;0.10;;;17.70;46.70;;;;;;5068405;28;20649;-82
2021/12/25 11:15:14;;;;;;;0.63;0.10;;;17.70;46.60;;;;;;5058982;28;20109;-82
2021/12/25 11:17:41;;;;;;;0.65;0.10;;;17.70;46.50;;;;;;5068544;28;20082;-82
2021/12/25 11:20:08;;;;;;;0.20;0.00;;;17.70;46.50;;;;;;5066057;28;20056;-82
2021/12/25 11:22:51;;;;;;;0.57;0.20;;;17.70;46.50;;;;;;5065376;28;20055;-82
2021/12/25 11:25:18;;;;;;;0.30;0.10;;;17.80;46.50;;;;;;5067744;28;20048;-83
2021/12/25 11:27:43;;;;;;;0.63;0.20;;;17.80;46.50;;;;;;5060945;28;20053;-82
2021/12/25 11:30:09;;;;;;;0.75;0.15;;;17.80;46.50;;;;;;5064379;28;20127;-82
2021/12/25 11:32:35;;;;;;;0.68;0.10;;;17.80;46.50;;;;;;5051088;28;20519;-83
2021/12/25 11:35:01;;;;;;;0.13;0.08;;;17.80;46.50;;;;;;5051771;28;20045;-82
2021/12/25 11:37:26;;;;;;;2.03;0.20;;;17.80;46.50;;;;;;5051518;28;20506;-83
2021/12/25 11:39:53;;;;;;;0.65;0.10;;;17.70;46.50;;;;;;5051032;28;20049;-83
2021/12/25 11:42:19;;;;;;;0.63;0.10;;;17.80;46.50;;;;;;5050609;28;20041;-82
2021/12/25 11:44:50;;;;;;;0.95;0.20;;;17.80;46.50;;;;;;5068383;28;20053;-83
2021/12/25 11:47:40;;;;;;;0.20;0.10;;;17.80;46.50;;;;;;5067991;28;20059;-83
2021/12/25 11:50:10;;;;;;;0.45;0.10;;;17.80;46.50;;;;;;5067892;28;20044;-82
2021/12/25 11:52:44;;;;;;;0.10;0.00;;;17.80;46.40;;;;;;5051607;28;20044;-83
2021/12/25 11:58:42;;;;;;;0.50;0.10;;;17.80;46.40;;;;;;5067955;28;20155;-82
2021/12/25 12:01:18;;;;;;;0.22;0.10;;;17.80;46.30;;;;;;5049804;28;20048;-82
2021/12/25 12:03:46;;;;;;;0.80;0.10;;;17.90;46.30;;;;;;5050962;28;20056;-82
2021/12/25 12:06:13;;;;;;;0.55;0.10;;;17.90;46.30;;;;;;5051044;28;20131;-83
2021/12/25 12:08:56;;;;;;;0.30;0.10;;;17.90;47.00;;;;;;5050970;28;20661;-83
2021/12/25 12:11:27;;;;;;;0.38;0.10;;;17.70;46.30;;;;;;5050529;28;20053;-83
2021/12/25 12:14:13;;;;;;;0.40;0.10;;;17.90;46.20;;;;;;5051675;28;20171;-83
2021/12/25 12:16:44;;;;;;;0.05;0.00;;;17.90;46.20;;;;;;5068923;28;20142;-84
2021/12/25 12:22:35;;;;;;;0.30;0.10;;;17.90;46.20;;;;;;5050865;28;20400;-84
2021/12/25 12:27:40;;;;;;;1.35;0.10;;;17.90;46.10;;;;;;5067804;28;20052;-84
2021/12/25 12:30:13;;;;;;;0.38;0.10;;;17.90;46.10;;;;;;5067218;28;20048;-83
2021/12/25 12:32:46;;;;;;;0.40;0.10;;;17.90;46.00;;;;;;5050795;28;20243;-83
2021/12/25 12:35:32;;;;;;;1.88;0.10;;;17.90;46.00;;;;;;5050908;28;20530;-84
2021/12/25 12:38:27;;;;;;;0.10;0.03;;;17.90;46.10;;;;;;5050760;28;20052;-84
2021/12/25 12:41:34;;;;;;;0.52;0.03;;;17.90;46.00;;;;;;5050125;28;20467;-84
2021/12/25 12:44:12;;;;;;;0.50;0.08;;;18.00;46.00;;;;;;5037364;28;20052;-83
2021/12/25 12:46:50;;;;;;;0.45;0.03;;;18.00;46.00;;;;;;5050590;28;20101;-83
2021/12/25 12:49:18;;;;;;;0.20;0.00;;;17.90;46.00;;;;;;5050218;28;20448;-83
2021/12/25 12:51:44;;;;;;;0.15;0.05;;;18.00;46.00;;;;;;5051452;28;20097;-83
2021/12/25 12:54:10;;;;;;;0.63;0.10;;;18.00;46.00;;;;;;5054426;28;20056;-83
2021/12/25 12:56:36;;;;;;;0.40;0.10;;;18.40;46.20;;;;;;5053480;28;20170;-83
2021/12/25 12:59:03;;;;;;;1.35;0.13;;;18.00;46.00;;;;;;5055033;28;20067;-83
2021/12/25 13:01:28;;;;;;;1.02;0.10;;;18.00;46.00;;;;;;5054513;28;20391;-83
2021/12/25 13:04:02;;;;;;;0.40;0.05;;;18.00;46.00;;;;;;5054204;28;20036;-83
2021/12/25 13:06:28;;;;;;;0.45;0.10;;;18.00;46.00;;;;;;5055029;28;20108;-83
2021/12/25 13:08:54;;;;;;;0.30;0.00;;;18.00;46.00;;;;;;5053852;28;20044;-83
2021/12/25 13:11:31;;;;;;;0.28;0.10;;;18.00;46.00;;;;;;5054404;28;20117;-83
2021/12/25 13:13:59;;;;;;;0.35;0.10;;;18.00;46.00;;;;;;5054396;28;20041;-84
2021/12/25 13:16:33;;;;;;;0.15;0.00;;;18.00;46.00;;;;;;5054405;28;20101;-84
2021/12/25 13:18:59;;;;;;;0.57;0.10;;;18.00;46.00;;;;;;5038017;28;20135;-83
2021/12/25 13:21:27;;;;;;;0.60;0.20;;;18.00;46.00;;;;;;5053658;28;20181;-83
2021/12/25 13:23:56;;;;;;;0.93;0.10;;;18.00;45.90;;;;;;5053669;28;20048;-83
2021/12/25 13:26:30;;;;;;;0.35;0.10;;;18.00;45.90;;;;;;5052554;28;20102;-83
2021/12/25 13:28:56;;;;;;;0.28;0.10;;;18.00;45.90;;;;;;5053768;28;20099;-82
2021/12/25 13:31:23;;;;;;;0.40;0.10;;;18.00;45.90;;;;;;5057488;28;20048;-83
2021/12/25 13:33:53;;;;;;;0.60;0.13;;;18.00;46.60;;;;;;5070525;28;20174;-82
2021/12/25 13:36:21;;;;;;;0.52;0.15;;;18.00;46.00;;;;;;5070298;28;20055;-82
2021/12/25 13:39:10;;;;;;;0.52;0.10;;;18.00;45.90;;;;;;5070698;28;20100;-83
2021/12/25 13:41:37;;;;;;;0.75;0.20;;;18.00;46.60;;;;;;5070511;28;20786;-83
2021/12/25 13:44:12;;;;;;;0.20;0.08;;;18.00;45.90;;;;;;5069086;28;20050;-83
2021/12/25 13:46:48;;;;;;;0.47;0.10;;;18.00;45.90;;;;;;5065585;28;20052;-83
2021/12/25 13:49:32;;;;;;;0.10;0.10;;;18.00;45.90;;;;;;5061713;28;20047;-82
2021/12/25 13:52:05;;;;;;;0.15;0.10;;;18.00;45.90;;;;;;5070568;28;20642;-83
2021/12/25 13:54:30;;;;;;;0.70;0.10;;;18.00;45.80;;;;;;5069960;28;20048;-83
2021/12/25 13:56:57;;;;;;;0.52;0.20;;;18.00;45.80;;;;;;5069823;28;20054;-82
2021/12/25 13:59:22;;;;;;;0.50;0.03;;;18.00;45.80;;;;;;5070432;28;20045;-82
2021/12/25 14:01:56;;;;;;;0.77;0.10;;;18.00;45.90;;;;;;5069999;28;20052;-82
2021/12/25 14:04:21;;;;;;;0.20;0.10;;;18.00;45.90;;;;;;5066978;28;20045;-82
2021/12/25 14:06:48;;;;;;;1.13;0.20;;;18.00;45.90;;;;;;5052895;28;20040;-82
2021/12/25 14:09:13;;;;;;;0.05;0.00;;;18.00;45.90;;;;;;5051682;28;20037;-82